Time;durP1;ratioP1;P1;durP2;ratioP2;P2;SDS_P1;SDS_P2;PMS_P1;PMS_P2;Temp;Humidity;BMP_temperature;BMP_pressure;BME280_temperature;BME280_humidity;BME280_pressure;Samples;Min_cycle;Max_cycle;Signal;HPM_P1;HPM_P2
2021/11/08 00:01:20;;;;;;;26.85;7.13;;;8.60;84.50;;;;;;5019545;28;20091;-72
2021/11/08 00:03:47;;;;;;;25.50;6.68;;;8.60;84.80;;;;;;5006060;28;21250;-72
2021/11/08 00:06:16;;;;;;;27.85;6.50;;;8.60;84.80;;;;;;5003083;28;20025;-73
2021/11/08 00:08:42;;;;;;;26.15;7.03;;;8.60;85.00;;;;;;5010482;28;20022;-72
2021/11/08 00:11:08;;;;;;;23.55;7.28;;;8.50;85.20;;;;;;5008885;28;20026;-73
2021/11/08 00:13:36;;;;;;;22.63;6.68;;;8.40;85.30;;;;;;5007568;28;20494;-73
2021/11/08 00:21:31;;;;;;;22.38;7.28;;;8.30;85.80;;;;;;5010253;28;20068;-72
2021/11/08 00:23:57;;;;;;;21.15;6.63;;;8.20;85.90;;;;;;5011985;28;20053;-73
2021/11/08 00:26:23;;;;;;;23.33;7.07;;;8.10;86.00;;;;;;5008120;28;20397;-73
2021/11/08 00:28:49;;;;;;;23.58;7.30;;;8.10;86.10;;;;;;5008147;28;20041;-74
2021/11/08 00:31:15;;;;;;;21.50;7.00;;;8.10;86.20;;;;;;5012548;28;20030;-72
2021/11/08 00:33:40;;;;;;;24.83;7.18;;;8.10;86.30;;;;;;5006076;28;20390;-73
2021/11/08 00:36:07;;;;;;;25.13;6.80;;;8.10;86.20;;;;;;5023463;28;20524;-73
2021/11/08 00:38:33;;;;;;;21.38;6.32;;;8.00;86.40;;;;;;5008977;28;20053;-73
2021/11/08 00:40:59;;;;;;;31.63;7.32;;;7.90;86.50;;;;;;5008160;28;20112;-73
2021/11/08 00:43:26;;;;;;;20.58;5.88;;;7.90;86.70;;;;;;5022346;28;20523;-75
2021/11/08 00:45:51;;;;;;;24.02;6.88;;;7.90;86.80;;;;;;5026852;28;20037;-73
2021/11/08 00:48:20;;;;;;;24.23;6.70;;;7.80;86.80;;;;;;5005055;28;20037;-73
2021/11/08 00:50:49;;;;;;;18.05;6.75;;;7.80;86.90;;;;;;5006540;28;20403;-72
2021/11/08 00:53:15;;;;;;;20.48;6.38;;;7.80;87.00;;;;;;5006090;28;20065;-72
2021/11/08 00:55:42;;;;;;;24.67;7.20;;;7.70;86.90;;;;;;5008512;28;20469;-74
2021/11/08 00:58:15;;;;;;;19.13;6.47;;;7.70;86.80;;;;;;5009641;28;20053;-73
2021/11/08 01:00:40;;;;;;;20.55;6.88;;;7.70;86.90;;;;;;5008003;28;20344;-72
2021/11/08 01:03:08;;;;;;;25.13;7.07;;;7.60;87.00;;;;;;5007092;28;20404;-72
2021/11/08 01:05:34;;;;;;;25.33;6.78;;;7.60;87.10;;;;;;5009770;28;20022;-72
2021/11/08 01:08:00;;;;;;;25.33;7.70;;;7.50;87.10;;;;;;5008893;28;20041;-72
2021/11/08 01:10:26;;;;;;;28.77;8.52;;;7.50;87.20;;;;;;5006475;28;20115;-72
2021/11/08 01:12:52;;;;;;;19.92;6.43;;;7.40;87.30;;;;;;5020398;28;20659;-73
2021/11/08 01:15:18;;;;;;;22.50;6.38;;;7.40;87.40;;;;;;5008629;28;20042;-73
2021/11/08 01:17:44;;;;;;;22.50;6.32;;;7.30;87.50;;;;;;5011616;28;20059;-75
2021/11/08 01:20:11;;;;;;;23.02;7.72;;;7.30;87.60;;;;;;5003874;28;20184;-73
2021/11/08 01:22:38;;;;;;;21.75;6.25;;;7.30;87.70;;;;;;5008204;28;20038;-73
2021/11/08 01:25:07;;;;;;;21.00;6.25;;;7.30;87.80;;;;;;5006204;28;20161;-72
2021/11/08 01:27:39;;;;;;;18.83;5.53;;;7.20;87.80;;;;;;5007599;28;20109;-74
2021/11/08 01:30:13;;;;;;;23.02;6.70;;;7.20;87.90;;;;;;5008865;28;20558;-74
2021/11/08 01:32:40;;;;;;;23.93;6.00;;;7.20;88.10;;;;;;5001066;28;20476;-73
2021/11/08 01:35:07;;;;;;;24.83;6.63;;;7.20;88.10;;;;;;5006071;28;20265;-74
2021/11/08 01:37:32;;;;;;;19.50;6.15;;;7.10;88.10;;;;;;5023677;28;20472;-74
2021/11/08 01:39:58;;;;;;;22.08;7.05;;;7.10;88.20;;;;;;5010262;28;20038;-75
2021/11/08 01:42:25;;;;;;;19.38;7.65;;;7.10;88.20;;;;;;5006686;28;20053;-73
2021/11/08 01:44:50;;;;;;;20.25;7.30;;;7.10;88.30;;;;;;5024336;28;20034;-72
2021/11/08 01:47:16;;;;;;;25.60;8.23;;;7.10;88.40;;;;;;5005338;28;20393;-74
2021/11/08 01:49:42;;;;;;;24.27;7.07;;;7.10;88.40;;;;;;5007423;28;20369;-73
2021/11/08 01:52:10;;;;;;;22.98;7.25;;;7.10;88.60;;;;;;5008682;28;20470;-72
2021/11/08 01:54:38;;;;;;;22.10;6.22;;;7.10;88.60;;;;;;5011513;28;20034;-72
2021/11/08 01:57:04;;;;;;;21.83;6.65;;;7.10;88.60;;;;;;5012120;28;20056;-73
2021/11/08 01:59:32;;;;;;;30.83;7.50;;;7.10;88.70;;;;;;5009727;28;20100;-73
2021/11/08 02:01:58;;;;;;;20.40;6.18;;;7.10;88.80;;;;;;5026867;28;20054;-73
2021/11/08 02:04:24;;;;;;;26.45;6.38;;;7.10;88.70;;;;;;5007081;28;20036;-72
2021/11/08 02:06:50;;;;;;;22.90;6.35;;;7.10;88.70;;;;;;5021858;28;20129;-72
2021/11/08 02:09:16;;;;;;;23.77;6.97;;;7.10;88.80;;;;;;5020776;28;20386;-73
2021/11/08 02:11:43;;;;;;;20.30;6.07;;;7.10;88.80;;;;;;5025095;28;20049;-72
2021/11/08 02:14:09;;;;;;;24.58;6.07;;;7.10;88.90;;;;;;5019156;28;20100;-73
2021/11/08 02:16:35;;;;;;;23.85;6.80;;;7.10;88.90;;;;;;5011897;28;20061;-73
2021/11/08 02:19:06;;;;;;;19.65;6.38;;;7.00;89.00;;;;;;5005663;28;20520;-75
2021/11/08 02:21:33;;;;;;;21.70;6.40;;;7.10;89.00;;;;;;5008356;28;20120;-73
2021/11/08 02:24:01;;;;;;;17.65;5.60;;;7.10;89.00;;;;;;5007044;28;20041;-73
2021/11/08 02:26:27;;;;;;;22.20;6.50;;;7.00;89.00;;;;;;5007052;28;20030;-73
2021/11/08 02:28:53;;;;;;;19.65;6.88;;;7.00;89.10;;;;;;5005926;28;20044;-73
2021/11/08 02:31:22;;;;;;;21.33;7.25;;;7.10;89.10;;;;;;5006091;28;20042;-73
2021/11/08 02:33:51;;;;;;;23.63;6.72;;;7.10;89.10;;;;;;5007296;28;20382;-73
2021/11/08 02:36:18;;;;;;;18.20;6.45;;;7.10;89.10;;;;;;5009362;28;20045;-75
2021/11/08 02:38:48;;;;;;;24.77;7.15;;;7.10;89.00;;;;;;5005167;28;20040;-74
2021/11/08 02:41:16;;;;;;;20.63;7.22;;;7.00;89.10;;;;;;5006424;28;20048;-72
2021/11/08 02:43:42;;;;;;;19.02;6.75;;;7.00;89.20;;;;;;5010204;28;20076;-75
2021/11/08 02:46:16;;;;;;;24.35;6.90;;;7.00;89.20;;;;;;5011847;28;20042;-73
2021/11/08 02:48:43;;;;;;;20.85;6.78;;;7.00;89.30;;;;;;5011018;28;20104;-73
2021/11/08 02:51:24;;;;;;;23.67;7.13;;;7.00;89.30;;;;;;5004193;28;20033;-73
2021/11/08 02:53:58;;;;;;;23.73;7.13;;;7.00;89.30;;;;;;5006414;28;20050;-73
2021/11/08 02:56:24;;;;;;;26.08;7.32;;;7.00;89.20;;;;;;5021982;28;20125;-72
2021/11/08 02:58:50;;;;;;;22.65;6.53;;;7.00;89.30;;;;;;5007189;28;20130;-73
2021/11/08 03:01:19;;;;;;;19.30;6.43;;;7.00;89.30;;;;;;5005692;28;20412;-74
2021/11/08 03:03:48;;;;;;;18.83;6.68;;;6.90;89.30;;;;;;5005193;28;20045;-73
2021/11/08 03:06:35;;;;;;;21.83;7.13;;;6.90;89.40;;;;;;5006887;28;20389;-73
2021/11/08 03:09:10;;;;;;;23.80;7.28;;;7.00;89.40;;;;;;5005702;28;20132;-75
2021/11/08 03:11:36;;;;;;;24.45;7.03;;;6.80;89.40;;;;;;5006449;28;20029;-72
2021/11/08 03:14:05;;;;;;;23.92;6.50;;;6.80;89.50;;;;;;5018562;28;20133;-73
2021/11/08 03:16:56;;;;;;;19.65;6.20;;;6.90;89.50;;;;;;5009741;28;20034;-73
2021/11/08 03:21:45;;;;;;;18.63;6.88;;;6.80;89.50;;;;;;5011266;28;20037;-73
2021/11/08 03:24:15;;;;;;;17.38;5.93;;;6.80;89.50;;;;;;5002927;28;20473;-74
2021/11/08 03:26:48;;;;;;;20.05;6.15;;;6.80;89.50;;;;;;5008184;28;20041;-73
2021/11/08 03:29:15;;;;;;;23.15;6.60;;;6.80;89.50;;;;;;5007708;28;20045;-73
2021/11/08 03:31:42;;;;;;;20.88;6.45;;;6.80;89.60;;;;;;5011294;28;20034;-73
2021/11/08 03:34:09;;;;;;;21.20;6.45;;;6.80;89.60;;;;;;5006369;28;20414;-74
2021/11/08 03:36:35;;;;;;;22.60;7.22;;;6.80;89.60;;;;;;5008776;28;20046;-73
2021/11/08 03:39:01;;;;;;;19.45;6.20;;;6.80;89.50;;;;;;5008095;28;20073;-73
2021/11/08 03:41:28;;;;;;;27.70;7.18;;;6.90;89.50;;;;;;5003900;28;20062;-73
2021/11/08 03:43:53;;;;;;;23.95;6.65;;;6.90;89.50;;;;;;5009667;28;20037;-73
2021/11/08 03:46:19;;;;;;;18.33;6.28;;;7.00;89.50;;;;;;5009970;28;20049;-73
2021/11/08 03:48:45;;;;;;;25.05;7.88;;;7.00;89.50;;;;;;5008424;28;20065;-73
2021/11/08 03:51:11;;;;;;;27.42;7.35;;;7.10;89.60;;;;;;5008859;28;20085;-73
2021/11/08 03:53:37;;;;;;;22.75;6.53;;;7.10;89.60;;;;;;5003519;28;20596;-73
2021/11/08 03:56:04;;;;;;;20.02;6.43;;;7.10;89.50;;;;;;5010818;28;20030;-73
2021/11/08 03:58:31;;;;;;;21.80;6.60;;;7.10;89.50;;;;;;5024252;28;20057;-73
2021/11/08 04:00:57;;;;;;;19.30;6.45;;;7.20;89.50;;;;;;5010669;28;20465;-73
2021/11/08 04:03:23;;;;;;;21.30;6.05;;;7.20;89.50;;;;;;5007977;28;20041;-73
2021/11/08 04:05:49;;;;;;;21.95;6.40;;;7.30;89.50;;;;;;5010013;28;20037;-74
2021/11/08 04:08:18;;;;;;;25.52;7.40;;;7.30;89.40;;;;;;5010000;28;20445;-73
2021/11/08 04:10:47;;;;;;;16.88;5.95;;;7.40;89.50;;;;;;5010778;28;20101;-73
2021/11/08 04:13:13;;;;;;;22.15;7.82;;;7.40;89.40;;;;;;5007949;28;20100;-75
2021/11/08 04:15:43;;;;;;;18.75;6.72;;;7.40;89.50;;;;;;5010243;28;20072;-73
2021/11/08 04:18:13;;;;;;;19.95;7.00;;;7.40;89.50;;;;;;5009463;28;20091;-73
2021/11/08 04:20:41;;;;;;;30.88;8.68;;;7.40;89.50;;;;;;5007868;28;20073;-73
2021/11/08 04:23:08;;;;;;;23.63;6.53;;;7.50;89.50;;;;;;5005059;28;20042;-74
2021/11/08 04:25:33;;;;;;;27.67;8.70;;;7.50;89.50;;;;;;5004985;28;20033;-74
2021/11/08 04:27:59;;;;;;;23.08;7.28;;;7.50;89.40;;;;;;5008758;28;20049;-73
2021/11/08 04:30:27;;;;;;;32.00;8.35;;;7.50;89.40;;;;;;5013820;28;20073;-73
2021/11/08 04:35:50;;;;;;;28.40;8.13;;;7.50;89.40;;;;;;5009870;28;20062;-73
2021/11/08 05:31:35;;;;;;;24.20;8.20;;;7.10;89.30;;;;;;5006177;28;20045;-73
2021/11/08 05:34:00;;;;;;;23.08;8.48;;;7.00;89.40;;;;;;5008183;28;20428;-73
2021/11/08 05:36:26;;;;;;;17.77;7.28;;;7.00;89.50;;;;;;5005488;28;20471;-72
2021/11/08 05:38:52;;;;;;;20.33;8.02;;;6.90;89.50;;;;;;5006163;28;20513;-72
2021/11/08 05:41:18;;;;;;;24.27;8.48;;;6.90;89.60;;;;;;5008459;28;20038;-72
2021/11/08 05:43:44;;;;;;;28.67;8.45;;;6.90;89.70;;;;;;5006172;28;20036;-73
2021/11/08 05:46:10;;;;;;;23.38;8.40;;;6.80;89.70;;;;;;5005787;28;20457;-73
2021/11/08 05:48:37;;;;;;;23.85;7.55;;;6.70;89.80;;;;;;5006754;28;20038;-72
2021/11/08 05:51:03;;;;;;;21.98;8.43;;;6.70;89.80;;;;;;5008033;28;20429;-73
2021/11/08 05:53:29;;;;;;;29.20;9.38;;;6.70;89.90;;;;;;5020618;28;20570;-72
2021/11/08 05:56:46;;;;;;;22.67;8.98;;;6.70;89.90;;;;;;5007311;28;20065;-72
2021/11/08 06:50:33;;;;;;;23.98;13.48;;;6.10;90.00;;;;;;5005817;28;20476;-73
2021/11/08 06:53:05;;;;;;;28.40;13.48;;;6.10;90.10;;;;;;5007280;28;20073;-73
2021/11/08 06:55:32;;;;;;;27.20;14.85;;;6.10;90.10;;;;;;5008830;28;20030;-71
2021/11/08 06:58:04;;;;;;;29.60;14.55;;;6.00;90.10;;;;;;5007988;28;20042;-72
2021/11/08 07:00:30;;;;;;;27.77;14.90;;;6.00;90.20;;;;;;5021905;28;20045;-72
2021/11/08 07:02:57;;;;;;;24.92;13.50;;;6.00;90.40;;;;;;5007276;28;20046;-72
2021/11/08 07:05:22;;;;;;;31.17;14.80;;;6.00;90.40;;;;;;5006202;28;20113;-73
2021/11/08 07:07:48;;;;;;;22.60;12.27;;;6.00;90.40;;;;;;5006606;28;20145;-74
2021/11/08 07:10:19;;;;;;;32.83;14.00;;;6.00;90.40;;;;;;5006212;28;20128;-72
2021/11/08 07:12:45;;;;;;;25.40;12.43;;;6.00;90.40;;;;;;5006540;28;20784;-72
2021/11/08 07:15:11;;;;;;;25.80;12.63;;;6.00;90.50;;;;;;5007305;28;20124;-72
2021/11/08 07:17:36;;;;;;;28.17;14.63;;;6.00;90.50;;;;;;5011460;28;20037;-71
2021/11/08 07:20:04;;;;;;;31.50;14.60;;;6.00;90.40;;;;;;5003803;28;20350;-74
2021/11/08 07:22:29;;;;;;;28.98;12.90;;;6.00;90.30;;;;;;5010335;28;20474;-68
2021/11/08 07:24:55;;;;;;;28.73;12.40;;;6.00;90.40;;;;;;5018290;28;20038;-69
2021/11/08 07:27:21;;;;;;;28.90;13.23;;;6.00;90.40;;;;;;5009175;28;20033;-69
2021/11/08 07:29:47;;;;;;;28.20;12.95;;;6.10;90.40;;;;;;5013140;28;20397;-70
2021/11/08 07:32:13;;;;;;;22.77;10.98;;;6.10;90.40;;;;;;5013740;28;20054;-70
2021/11/08 07:34:38;;;;;;;29.48;11.38;;;6.10;90.40;;;;;;5009129;28;20164;-71
2021/11/08 07:37:05;;;;;;;23.48;12.45;;;6.10;90.50;;;;;;5011582;28;20473;-69
2021/11/08 07:39:31;;;;;;;24.45;11.27;;;6.20;90.40;;;;;;5008738;28;20026;-70
2021/11/08 07:41:57;;;;;;;23.50;12.07;;;6.20;90.30;;;;;;5008832;28;20038;-69
2021/11/08 07:44:23;;;;;;;20.63;10.68;;;6.20;90.20;;;;;;5024272;28;20520;-68
2021/11/08 07:46:48;;;;;;;24.30;11.13;;;6.20;90.00;;;;;;5011980;28;21339;-69
2021/11/08 07:49:14;;;;;;;30.38;12.35;;;6.20;90.00;;;;;;5009112;28;20038;-68
2021/11/08 07:51:40;;;;;;;27.23;12.32;;;6.30;90.00;;;;;;5010273;28;20030;-68
2021/11/08 07:54:06;;;;;;;25.00;11.10;;;6.40;90.00;;;;;;5011287;28;20050;-69
2021/11/08 07:56:31;;;;;;;22.52;10.73;;;6.40;89.90;;;;;;5008995;28;20026;-69
2021/11/08 07:58:57;;;;;;;28.60;13.13;;;6.40;89.80;;;;;;5010963;28;20096;-69
2021/11/08 08:01:23;;;;;;;24.90;11.82;;;6.40;89.80;;;;;;5008307;28;20495;-69
2021/11/08 08:03:49;;;;;;;23.35;11.27;;;6.50;89.80;;;;;;5012025;28;20088;-68
2021/11/08 08:06:15;;;;;;;26.52;11.90;;;6.50;89.70;;;;;;5009282;28;20030;-69
2021/11/08 08:08:44;;;;;;;25.30;12.60;;;6.60;89.70;;;;;;5009424;28;20062;-69
2021/11/08 08:11:10;;;;;;;22.55;11.18;;;6.60;89.70;;;;;;5008873;28;20054;-69
2021/11/08 08:13:37;;;;;;;26.52;12.57;;;6.70;89.70;;;;;;5012176;28;20428;-68
2021/11/08 08:16:07;;;;;;;26.20;13.10;;;6.70;89.60;;;;;;5009652;28;20072;-68
2021/11/08 08:18:37;;;;;;;29.33;13.13;;;6.80;89.70;;;;;;5017087;28;20050;-69
2021/11/08 08:21:03;;;;;;;25.80;13.15;;;6.90;89.60;;;;;;5008728;28;20033;-68
2021/11/08 08:23:29;;;;;;;24.05;12.68;;;7.00;89.60;;;;;;5010674;28;20034;-68
2021/11/08 08:25:55;;;;;;;31.52;13.57;;;7.10;89.70;;;;;;5009165;28;20494;-68
2021/11/08 08:28:21;;;;;;;26.20;13.32;;;7.20;89.80;;;;;;5023532;28;20037;-70
2021/11/08 08:30:47;;;;;;;37.20;15.68;;;7.40;89.80;;;;;;5011854;28;20543;-69
2021/11/08 08:33:13;;;;;;;36.40;15.82;;;7.50;89.70;;;;;;5006589;28;20045;-68
2021/11/08 08:35:41;;;;;;;26.55;13.98;;;7.60;89.30;;;;;;5011447;28;20061;-68
2021/11/08 08:38:14;;;;;;;28.75;15.32;;;7.80;89.60;;;;;;5007130;28;20037;-68
2021/11/08 08:40:40;;;;;;;28.88;13.77;;;8.00;89.30;;;;;;5007959;28;20061;-68
2021/11/08 08:43:07;;;;;;;30.50;14.20;;;8.10;88.80;;;;;;5003351;28;20512;-68
2021/11/08 08:45:35;;;;;;;26.55;15.02;;;8.30;88.90;;;;;;5005788;28;20451;-68
2021/11/08 08:48:01;;;;;;;38.55;16.73;;;8.50;88.60;;;;;;5012062;28;20037;-69
2021/11/08 08:50:27;;;;;;;30.30;15.52;;;8.60;87.30;;;;;;5010453;28;20374;-68
2021/11/08 08:52:53;;;;;;;37.60;15.80;;;8.80;86.90;;;;;;5011502;28;20651;-68
2021/11/08 08:55:19;;;;;;;31.85;14.73;;;8.90;86.30;;;;;;5008460;28;20033;-68
2021/11/08 08:57:45;;;;;;;30.35;13.98;;;9.00;86.00;;;;;;5007628;28;20030;-69
2021/11/08 09:00:14;;;;;;;25.30;13.57;;;9.20;85.70;;;;;;5013431;28;20050;-68
2021/11/08 09:02:40;;;;;;;37.58;14.77;;;9.30;85.00;;;;;;5006595;28;20033;-68
2021/11/08 09:05:06;;;;;;;32.42;13.85;;;9.40;84.90;;;;;;5009699;28;20030;-68
2021/11/08 09:07:33;;;;;;;30.05;14.10;;;9.60;84.20;;;;;;5008460;28;20037;-67
2021/11/08 09:09:58;;;;;;;25.08;13.38;;;9.60;83.70;;;;;;5008496;28;20508;-66
2021/11/08 09:12:24;;;;;;;33.08;14.43;;;9.80;83.90;;;;;;5006477;28;20113;-67
2021/11/08 09:14:50;;;;;;;28.77;13.13;;;9.90;83.00;;;;;;5012073;28;20041;-67
2021/11/08 09:17:15;;;;;;;33.85;12.98;;;9.90;82.30;;;;;;5007896;28;20552;-67
2021/11/08 09:19:41;;;;;;;27.63;11.63;;;10.00;83.50;;;;;;5010627;28;20052;-68
2021/11/08 09:22:08;;;;;;;27.45;11.70;;;10.10;82.80;;;;;;5007883;28;20131;-67
2021/11/08 09:24:35;;;;;;;29.75;13.80;;;10.30;83.00;;;;;;5005615;28;20041;-66
2021/11/08 09:27:02;;;;;;;28.55;12.30;;;10.40;81.50;;;;;;5010084;28;20054;-69
2021/11/08 09:29:28;;;;;;;28.63;12.65;;;10.50;81.30;;;;;;5009988;28;20026;-67
2021/11/08 09:31:53;;;;;;;32.75;12.35;;;10.50;81.40;;;;;;5010013;28;20025;-67
2021/11/08 09:34:22;;;;;;;28.50;10.90;;;10.50;80.80;;;;;;5006938;28;20045;-67
2021/11/08 09:36:50;;;;;;;21.88;11.63;;;10.60;81.70;;;;;;5006076;28;20033;-67
2021/11/08 09:39:24;;;;;;;31.70;11.50;;;10.80;80.80;;;;;;5007981;28;20033;-66
2021/11/08 09:41:52;;;;;;;26.52;10.90;;;10.90;79.70;;;;;;5008744;28;20030;-67
2021/11/08 09:44:18;;;;;;;24.75;10.07;;;11.00;80.00;;;;;;5010397;28;20458;-67
2021/11/08 09:46:49;;;;;;;24.23;10.88;;;11.10;79.30;;;;;;5009345;28;20037;-67
2021/11/08 09:49:15;;;;;;;28.27;11.07;;;11.10;78.90;;;;;;5008622;28;20041;-68
2021/11/08 09:51:43;;;;;;;23.95;10.02;;;11.30;79.50;;;;;;5007157;28;20104;-67
2021/11/08 09:54:11;;;;;;;28.35;11.02;;;11.40;79.10;;;;;;5010362;28;20038;-68
2021/11/08 09:56:42;;;;;;;28.85;9.52;;;11.40;77.90;;;;;;5009940;28;20033;-68
2021/11/08 09:59:08;;;;;;;24.90;9.07;;;11.60;78.40;;;;;;5007019;28;20030;-68
2021/11/08 10:01:39;;;;;;;24.33;9.45;;;11.70;76.90;;;;;;5008282;28;20136;-68
2021/11/08 10:04:06;;;;;;;25.08;9.88;;;11.70;77.40;;;;;;5005005;28;20040;-69
2021/11/08 10:06:32;;;;;;;27.30;9.00;;;11.80;76.70;;;;;;5012152;28;20099;-68
2021/11/08 10:08:58;;;;;;;22.08;7.93;;;11.80;76.40;;;;;;5012552;28;20073;-68
2021/11/08 10:11:25;;;;;;;25.00;8.30;;;11.80;76.70;;;;;;5013405;28;20033;-69
2021/11/08 10:13:52;;;;;;;17.60;8.18;;;11.70;76.80;;;;;;5009453;28;20045;-67
2021/11/08 10:16:24;;;;;;;21.25;7.75;;;11.80;77.40;;;;;;5023209;28;20297;-68
2021/11/08 10:18:54;;;;;;;25.48;7.55;;;12.00;76.30;;;;;;5009430;28;20094;-67
2021/11/08 10:21:29;;;;;;;24.73;8.95;;;12.10;76.00;;;;;;5002459;28;20030;-69
2021/11/08 10:23:59;;;;;;;21.67;8.38;;;12.10;75.50;;;;;;5000691;28;20049;-69
2021/11/08 10:26:28;;;;;;;26.05;8.25;;;12.10;75.80;;;;;;5002742;28;20445;-69
2021/11/08 10:29:02;;;;;;;24.40;6.80;;;12.10;75.50;;;;;;5001400;28;20038;-68
2021/11/08 10:31:35;;;;;;;20.40;6.45;;;12.00;74.20;;;;;;4999180;28;20046;-68
2021/11/08 10:34:05;;;;;;;17.65;5.93;;;11.90;74.90;;;;;;5000956;28;20058;-68
2021/11/08 10:36:31;;;;;;;26.30;7.32;;;12.00;75.10;;;;;;4999221;28;20033;-69
2021/11/08 10:39:00;;;;;;;27.45;7.70;;;12.00;75.20;;;;;;5001325;28;20038;-67
2021/11/08 10:41:30;;;;;;;22.83;7.15;;;12.10;75.10;;;;;;5005880;28;20034;-69
2021/11/08 10:44:10;;;;;;;25.90;6.95;;;12.40;74.40;;;;;;4999045;28;20084;-69
2021/11/08 10:46:41;;;;;;;29.63;7.40;;;12.30;74.50;;;;;;5000193;28;20034;-69
2021/11/08 10:49:20;;;;;;;22.52;6.35;;;12.30;74.20;;;;;;5012944;28;20042;-68
2021/11/08 10:51:54;;;;;;;20.33;7.00;;;12.40;73.60;;;;;;4997288;28;20068;-68
2021/11/08 10:54:31;;;;;;;21.40;6.93;;;12.50;73.00;;;;;;5005833;28;20038;-68
2021/11/08 10:57:05;;;;;;;26.00;6.82;;;12.50;73.30;;;;;;5002197;28;20041;-68
2021/11/08 10:59:34;;;;;;;22.35;6.63;;;12.20;73.00;;;;;;5006266;28;20478;-68
2021/11/08 11:02:04;;;;;;;21.80;6.47;;;12.30;72.80;;;;;;4998694;28;20096;-69
2021/11/08 11:04:46;;;;;;;22.08;6.72;;;12.50;71.90;;;;;;5005253;28;20127;-69
2021/11/08 11:07:42;;;;;;;19.52;6.47;;;12.50;72.30;;;;;;5005541;28;20034;-68
2021/11/08 11:10:10;;;;;;;23.73;6.55;;;12.60;71.30;;;;;;4999627;28;20517;-68
2021/11/08 11:12:37;;;;;;;22.40;6.82;;;12.50;71.20;;;;;;5010344;28;20069;-70
2021/11/08 11:15:20;;;;;;;21.80;5.63;;;12.40;72.30;;;;;;5003670;28;20054;-68
2021/11/08 11:17:55;;;;;;;18.55;6.15;;;12.30;71.90;;;;;;5003456;28;20486;-68
2021/11/08 11:20:29;;;;;;;18.63;5.68;;;12.40;71.10;;;;;;5019984;28;20085;-69
2021/11/08 11:23:05;;;;;;;17.30;6.22;;;12.60;70.30;;;;;;4999963;28;20108;-67
2021/11/08 11:25:38;;;;;;;17.83;5.47;;;12.60;70.30;;;;;;5002386;28;20474;-67
2021/11/08 11:28:06;;;;;;;18.45;5.15;;;12.60;70.00;;;;;;5003183;28;20036;-68
2021/11/08 11:30:34;;;;;;;21.70;6.43;;;12.70;70.60;;;;;;5002607;28;20045;-70
2021/11/08 11:33:09;;;;;;;21.63;6.13;;;12.70;70.30;;;;;;5005463;28;20125;-68
2021/11/08 11:35:36;;;;;;;;;;;12.70;71.20;;;;;;4999542;28;20532;-68
2021/11/08 11:38:09;;;;;;;18.25;6.13;;;12.60;70.70;;;;;;5003974;28;19924;-70
2021/11/08 11:40:44;;;;;;;22.42;6.47;;;12.60;70.70;;;;;;5006440;28;20504;-68
2021/11/08 11:43:14;;;;;;;21.10;6.47;;;12.90;70.00;;;;;;5001548;28;20545;-69
2021/11/08 11:45:54;;;;;;;25.80;6.40;;;12.80;69.30;;;;;;5006065;28;20104;-69
2021/11/08 11:48:25;;;;;;;22.73;5.72;;;12.90;67.90;;;;;;5003966;28;20030;-69
2021/11/08 11:50:51;;;;;;;17.98;5.32;;;13.20;67.10;;;;;;5000658;28;20128;-67
2021/11/08 11:53:17;;;;;;;21.52;7.57;;;13.20;67.40;;;;;;5005384;28;20580;-68
2021/11/08 11:55:43;;;;;;;18.80;4.97;;;13.30;67.70;;;;;;5003526;28;20034;-69
2021/11/08 11:58:09;;;;;;;19.92;5.85;;;13.20;66.50;;;;;;5005485;28;20030;-67
2021/11/08 12:00:38;;;;;;;17.92;5.25;;;13.10;68.00;;;;;;5003080;28;20465;-68
2021/11/08 12:03:05;;;;;;;20.45;5.38;;;13.10;66.90;;;;;;5006861;28;20478;-68
2021/11/08 12:05:31;;;;;;;20.50;5.38;;;13.10;67.20;;;;;;5007754;28;20033;-68
2021/11/08 12:08:01;;;;;;;18.65;5.10;;;13.30;67.00;;;;;;5006838;28;20454;-67
2021/11/08 12:10:27;;;;;;;21.40;5.10;;;13.20;66.80;;;;;;5010296;28;20036;-68
2021/11/08 12:12:53;;;;;;;18.30;5.03;;;13.20;67.40;;;;;;5007559;28;20054;-68
2021/11/08 12:15:30;;;;;;;20.90;6.07;;;13.20;67.60;;;;;;5007885;28;20477;-68
2021/11/08 12:18:06;;;;;;;19.80;5.70;;;13.40;67.20;;;;;;5005309;28;20378;-68
2021/11/08 12:20:32;;;;;;;22.98;5.88;;;13.60;67.40;;;;;;4983178;28;20038;-68
2021/11/08 12:22:58;;;;;;;19.50;5.90;;;13.80;67.20;;;;;;4988766;28;20041;-68
2021/11/08 12:25:27;;;;;;;18.17;4.70;;;14.00;65.60;;;;;;4983603;28;20034;-68
2021/11/08 12:28:06;;;;;;;19.52;5.40;;;14.00;65.10;;;;;;4986234;28;20563;-68
2021/11/08 12:30:34;;;;;;;16.35;5.07;;;14.10;64.70;;;;;;4986133;28;20120;-68
2021/11/08 12:33:20;;;;;;;18.52;4.35;;;14.10;63.70;;;;;;4983657;28;20042;-68
2021/11/08 12:35:46;;;;;;;17.92;5.18;;;14.20;62.60;;;;;;4980377;28;20041;-68
2021/11/08 12:38:21;;;;;;;18.38;5.35;;;14.00;62.20;;;;;;4979938;28;20294;-68
2021/11/08 12:40:48;;;;;;;27.17;6.22;;;13.90;62.00;;;;;;4985513;28;20125;-69
2021/11/08 12:43:25;;;;;;;20.13;4.90;;;13.60;64.00;;;;;;4989691;28;20093;-67
2021/11/08 12:45:51;;;;;;;16.38;4.95;;;13.50;64.10;;;;;;4984271;28;20449;-68
2021/11/08 12:48:17;;;;;;;18.60;5.00;;;13.10;63.90;;;;;;4985837;28;20038;-67
2021/11/08 12:50:47;;;;;;;16.70;4.35;;;13.10;64.10;;;;;;4987840;28;20030;-67
2021/11/08 12:53:24;;;;;;;17.10;4.25;;;13.40;62.00;;;;;;4986746;28;20053;-69
2021/11/08 12:55:51;;;;;;;20.63;5.25;;;13.50;62.40;;;;;;4984779;28;20482;-70
2021/11/08 12:58:17;;;;;;;17.45;5.07;;;13.70;62.50;;;;;;4984653;28;20034;-67
2021/11/08 13:00:53;;;;;;;16.02;5.47;;;13.80;62.50;;;;;;4998317;28;20065;-67
2021/11/08 13:03:30;;;;;;;14.95;4.65;;;13.80;62.70;;;;;;4986735;28;20482;-68
2021/11/08 13:05:58;;;;;;;22.58;5.55;;;14.00;63.60;;;;;;4987139;28;20027;-67
2021/11/08 13:08:29;;;;;;;19.98;5.35;;;13.90;61.40;;;;;;4985509;28;20039;-69
2021/11/08 13:11:10;;;;;;;14.88;4.85;;;13.70;61.90;;;;;;4988188;28;20048;-68
2021/11/08 13:13:40;;;;;;;19.45;5.10;;;13.50;63.40;;;;;;4987096;28;20045;-67
2021/11/08 13:16:11;;;;;;;24.45;6.10;;;13.30;63.60;;;;;;4981318;28;20442;-66
2021/11/08 13:18:46;;;;;;;16.67;5.07;;;13.10;64.80;;;;;;4992440;28;20544;-68
2021/11/08 13:21:21;;;;;;;18.48;5.50;;;13.00;64.60;;;;;;5007705;28;20073;-67
2021/11/08 13:23:53;;;;;;;23.15;5.82;;;12.90;65.60;;;;;;5002875;28;20041;-68
2021/11/08 13:26:19;;;;;;;18.77;5.72;;;12.80;67.80;;;;;;5009706;28;20121;-67
2021/11/08 13:28:45;;;;;;;20.50;5.80;;;12.70;68.90;;;;;;5004656;28;20548;-70
2021/11/08 13:31:12;;;;;;;21.15;5.70;;;12.60;68.10;;;;;;5005668;28;20563;-66
2021/11/08 13:33:45;;;;;;;19.65;5.68;;;12.50;68.60;;;;;;5025443;28;20046;-67
2021/11/08 13:36:13;;;;;;;23.63;6.35;;;12.50;69.40;;;;;;5012952;28;20420;-68
2021/11/08 13:38:42;;;;;;;22.45;6.35;;;12.50;69.30;;;;;;5006599;28;20044;-67
2021/11/08 13:41:16;;;;;;;15.30;5.53;;;12.30;69.90;;;;;;5000758;28;20371;-67
2021/11/08 13:43:51;;;;;;;19.65;5.38;;;12.10;70.40;;;;;;5004350;28;20042;-68
2021/11/08 13:46:20;;;;;;;21.48;5.90;;;12.10;70.10;;;;;;5006959;28;20048;-70
2021/11/08 13:48:54;;;;;;;18.85;5.72;;;11.90;70.60;;;;;;5007185;28;20041;-67
2021/11/08 13:51:25;;;;;;;17.45;5.13;;;11.80;70.30;;;;;;5005588;28;20069;-69
2021/11/08 13:53:57;;;;;;;19.33;5.90;;;11.70;70.30;;;;;;5008773;28;20037;-68
2021/11/08 13:56:33;;;;;;;16.35;5.55;;;11.70;70.80;;;;;;5007110;28;20037;-67
2021/11/08 13:59:01;;;;;;;17.05;4.68;;;11.70;71.20;;;;;;5004901;28;20108;-67
2021/11/08 14:01:33;;;;;;;24.85;6.25;;;11.70;70.90;;;;;;5006527;28;20137;-68
2021/11/08 14:04:00;;;;;;;16.88;5.32;;;11.60;70.90;;;;;;5004638;28;20053;-69
2021/11/08 14:06:30;;;;;;;15.65;4.85;;;11.70;71.20;;;;;;5003326;28;20401;-67
2021/11/08 14:08:57;;;;;;;21.05;5.50;;;11.80;71.20;;;;;;5007685;28;20042;-70
2021/11/08 14:11:34;;;;;;;18.35;5.30;;;11.80;71.10;;;;;;5008450;28;20041;-67
2021/11/08 14:14:15;;;;;;;17.33;5.10;;;11.80;71.00;;;;;;5006305;28;20046;-67
2021/11/08 14:16:44;;;;;;;20.02;5.50;;;11.90;70.90;;;;;;5013019;28;20045;-67
2021/11/08 14:19:11;;;;;;;18.58;4.88;;;11.90;70.60;;;;;;5003069;28;20057;-68
2021/11/08 14:21:38;;;;;;;20.30;4.53;;;11.80;70.10;;;;;;5008142;28;20397;-68
2021/11/08 14:24:06;;;;;;;16.42;5.03;;;11.80;70.00;;;;;;5007356;28;20037;-68
2021/11/08 14:26:34;;;;;;;28.58;5.47;;;11.70;70.10;;;;;;5006744;28;20103;-68
2021/11/08 14:29:09;;;;;;;21.10;5.40;;;11.70;70.10;;;;;;5005024;28;20041;-66
2021/11/08 14:31:35;;;;;;;;;;;11.70;70.50;;;;;;5013866;28;20473;-67
2021/11/08 14:34:04;;;;;;;19.95;5.65;;;11.60;70.80;;;;;;5003375;28;19933;-67
2021/11/08 14:36:33;;;;;;;17.70;4.88;;;11.60;70.60;;;;;;5006893;28;20037;-67
2021/11/08 14:39:02;;;;;;;21.92;5.53;;;11.60;70.90;;;;;;4992727;28;20401;-66
2021/11/08 14:41:33;;;;;;;18.15;4.30;;;11.60;70.90;;;;;;5022875;28;20088;-72
2021/11/08 14:44:07;;;;;;;17.48;4.22;;;11.60;71.20;;;;;;5019860;28;20447;-68